createdAt,value
2023-03-06T00:03:28.528Z,12.95
2023-03-06T00:05:57.473Z,13.18
2023-03-06T00:08:26.474Z,12.10
2023-03-06T00:10:54.194Z,13.18
2023-03-06T00:13:21.206Z,11.95
2023-03-06T00:15:48.847Z,14.30
2023-03-06T00:18:15.869Z,12.43
2023-03-06T00:20:44.287Z,13.23
2023-03-06T00:23:11.893Z,12.73
2023-03-06T00:25:42.537Z,12.57
2023-03-06T00:28:12.268Z,13.63
2023-03-06T00:30:39.418Z,12.65
2023-03-06T00:33:06.332Z,12.77
2023-03-06T00:35:33.423Z,13.10
2023-03-06T00:38:00.404Z,12.98
2023-03-06T00:40:27.528Z,13.35
2023-03-06T00:42:54.479Z,13.85
2023-03-06T00:45:21.365Z,13.07
2023-03-06T00:47:48.438Z,12.73
2023-03-06T00:50:15.356Z,13.57
2023-03-06T00:52:42.434Z,12.88
2023-03-06T00:55:10.568Z,13.20
2023-03-06T00:57:37.940Z,12.90
2023-03-06T01:00:07.814Z,12.88
2023-03-06T01:02:35.008Z,12.45
2023-03-06T01:05:02.266Z,12.30
2023-03-06T01:07:34.089Z,12.02
2023-03-06T01:10:00.971Z,11.82
2023-03-06T01:12:30.447Z,12.32
2023-03-06T01:14:57.509Z,11.50
2023-03-06T01:17:24.440Z,12.68
2023-03-06T01:19:51.368Z,13.07
2023-03-06T01:22:18.379Z,12.75
2023-03-06T01:24:45.273Z,11.70
2023-03-06T01:27:12.252Z,12.55
2023-03-06T01:29:39.144Z,12.63
2023-03-06T01:32:06.424Z,12.15
2023-03-06T01:34:33.392Z,12.35
2023-03-06T01:37:00.427Z,12.75
2023-03-06T01:39:28.760Z,11.90
2023-03-06T01:41:55.845Z,13.45
2023-03-06T01:44:22.682Z,13.50
2023-03-06T01:46:49.778Z,13.63
2023-03-06T01:49:35.341Z,12.60
2023-03-06T01:52:22.012Z,12.65
2023-03-06T01:54:57.782Z,13.85
2023-03-06T01:57:29.171Z,13.32
2023-03-06T02:00:02.744Z,14.88
2023-03-06T02:02:44.007Z,13.57
2023-03-06T02:05:12.090Z,13.60
2023-03-06T02:07:42.569Z,12.75
2023-03-06T02:10:14.335Z,13.38
2023-03-06T02:12:43.775Z,13.45
2023-03-06T02:17:39.362Z,12.68
2023-03-06T02:20:17.472Z,13.10
2023-03-06T02:22:54.153Z,13.80
2023-03-06T02:25:41.653Z,14.38
2023-03-06T02:28:11.875Z,14.55
2023-03-06T02:30:42.743Z,13.50
2023-03-06T02:33:22.701Z,14.13
2023-03-06T02:36:04.668Z,14.55
2023-03-06T02:38:37.454Z,13.57
2023-03-06T02:41:08.897Z,14.13
2023-03-06T02:43:39.082Z,14.48
2023-03-06T02:46:06.951Z,14.63
2023-03-06T02:48:34.039Z,13.63
2023-03-06T02:51:00.990Z,13.85
2023-03-06T02:53:28.078Z,13.48
2023-03-06T02:55:55.223Z,14.45
2023-03-06T02:58:22.236Z,13.55
2023-03-06T03:00:50.070Z,13.10
2023-03-06T03:03:19.653Z,12.55
2023-03-06T03:05:46.741Z,12.90
2023-03-06T03:08:28.615Z,13.18
2023-03-06T03:11:00.276Z,14.10
2023-03-06T03:13:32.775Z,12.52
2023-03-06T03:16:03.622Z,12.18
2023-03-06T03:18:31.215Z,12.73
2023-03-06T03:20:58.819Z,12.57
2023-03-06T03:23:26.402Z,13.35
2023-03-06T03:26:16.417Z,13.18
2023-03-06T03:28:48.597Z,13.40
2023-03-06T03:31:18.428Z,13.07
2023-03-06T03:33:45.598Z,15.52
2023-03-06T03:36:13.271Z,14.13
2023-03-06T03:38:44.069Z,13.05
2023-03-06T03:41:11.846Z,12.07
2023-03-06T03:43:38.764Z,13.50
2023-03-06T03:46:06.216Z,13.18
2023-03-06T03:48:33.748Z,14.27
2023-03-06T03:51:12.893Z,14.63
2023-03-06T03:53:45.233Z,15.35
2023-03-06T03:56:14.799Z,14.65
2023-03-06T03:58:50.861Z,15.15
2023-03-06T04:01:18.237Z,14.50
2023-03-06T04:03:45.395Z,13.85
2023-03-06T04:06:14.939Z,14.68
2023-03-06T04:08:42.062Z,15.02
2023-03-06T04:11:09.529Z,15.43
2023-03-06T04:13:36.501Z,16.77
2023-03-06T04:16:05.166Z,15.83
2023-03-06T04:18:33.546Z,15.50
2023-03-06T04:21:04.425Z,16.83
2023-03-06T04:23:31.877Z,16.75
2023-03-06T04:25:59.069Z,16.15
2023-03-06T04:28:26.281Z,16.55
2023-03-06T04:30:53.306Z,17.25
2023-03-06T04:33:21.276Z,15.80
2023-03-06T04:35:48.614Z,16.30
2023-03-06T04:38:21.348Z,17.00
2023-03-06T04:40:49.899Z,15.98
2023-03-06T04:43:18.569Z,19.63
2023-03-06T04:45:45.504Z,16.45
2023-03-06T04:48:17.798Z,17.05
2023-03-06T04:50:44.904Z,16.60
2023-03-06T04:53:14.548Z,17.25
2023-03-06T04:55:41.646Z,16.73
2023-03-06T04:58:08.745Z,17.38
2023-03-06T05:00:35.696Z,15.88
2023-03-06T05:03:02.641Z,15.90
2023-03-06T05:05:29.951Z,15.70
2023-03-06T05:07:57.579Z,16.08
2023-03-06T05:10:24.601Z,16.35
2023-03-06T05:12:53.706Z,16.15
2023-03-06T05:15:20.678Z,16.05
2023-03-06T05:17:47.805Z,16.15
2023-03-06T05:20:15.603Z,15.02
2023-03-06T05:22:44.065Z,16.60
2023-03-06T05:25:11.187Z,14.73
2023-03-06T05:27:39.959Z,15.00
2023-03-06T05:30:08.020Z,14.90
2023-03-06T05:32:35.775Z,14.73
2023-03-06T05:35:04.011Z,15.23
2023-03-06T05:37:31.093Z,14.75
2023-03-06T05:39:58.474Z,15.25
2023-03-06T05:42:27.600Z,16.35
2023-03-06T05:44:55.357Z,14.77
2023-03-06T05:47:22.455Z,15.65
2023-03-06T05:49:49.380Z,16.58
2023-03-06T05:52:17.717Z,16.02
2023-03-06T05:54:44.966Z,15.97
2023-03-06T05:57:11.975Z,15.77
2023-03-06T05:59:39.238Z,15.07
2023-03-06T06:02:06.090Z,16.25
2023-03-06T06:04:33.028Z,16.25
2023-03-06T06:07:01.888Z,16.15
2023-03-06T06:09:29.595Z,16.25
2023-03-06T06:11:59.669Z,17.25
2023-03-06T06:14:26.617Z,16.33
2023-03-06T06:16:54.049Z,16.33
2023-03-06T06:19:22.151Z,15.57
2023-03-06T06:21:51.281Z,16.85
2023-03-06T06:24:20.575Z,16.55
2023-03-06T06:26:51.715Z,16.30
2023-03-06T06:29:18.612Z,16.65
2023-03-06T06:31:45.952Z,17.00
2023-03-06T06:34:13.841Z,15.30
2023-03-06T06:36:41.404Z,14.85
2023-03-06T06:39:16.053Z,15.77
2023-03-06T06:41:57.277Z,16.13
2023-03-06T06:44:29.461Z,17.65
2023-03-06T06:47:21.898Z,15.40
2023-03-06T06:49:43.609Z,15.15
2023-03-06T06:52:11.209Z,16.08
2023-03-06T06:54:38.249Z,14.27
2023-03-06T06:57:05.163Z,15.30
2023-03-06T06:59:32.257Z,14.95
2023-03-06T07:01:59.429Z,14.85
2023-03-06T07:04:27.073Z,14.77
2023-03-06T07:06:57.754Z,14.35
2023-03-06T07:09:25.646Z,15.38
2023-03-06T07:11:52.720Z,15.10
2023-03-06T07:14:19.845Z,15.50
2023-03-06T07:16:46.994Z,14.98
2023-03-06T07:19:14.169Z,14.25
2023-03-06T07:21:41.349Z,15.18
2023-03-06T07:24:08.623Z,14.20
2023-03-06T07:26:35.578Z,14.93
2023-03-06T07:29:04.165Z,15.13
2023-03-06T07:31:31.501Z,16.17
2023-03-06T07:33:58.448Z,14.77
2023-03-06T07:36:25.460Z,14.13
2023-03-06T07:38:52.321Z,15.15
2023-03-06T07:41:22.198Z,15.32
2023-03-06T07:43:49.876Z,14.75
2023-03-06T07:46:17.524Z,14.63
2023-03-06T07:48:44.727Z,15.95
2023-03-06T07:51:20.413Z,14.98
2023-03-06T07:53:48.637Z,14.95
2023-03-06T07:56:15.878Z,14.60
2023-03-06T07:58:44.886Z,14.73
2023-03-06T08:01:15.180Z,14.77
2023-03-06T08:03:42.770Z,14.68
2023-03-06T08:06:19.483Z,15.05
2023-03-06T08:08:47.454Z,14.38
2023-03-06T08:11:16.818Z,15.85
2023-03-06T08:13:44.019Z,15.48
2023-03-06T08:16:11.732Z,14.88
2023-03-06T08:18:40.004Z,15.30
2023-03-06T08:21:12.930Z,15.03
2023-03-06T08:23:40.728Z,15.52
2023-03-06T08:26:12.321Z,15.80
2023-03-06T08:28:40.019Z,16.63
2023-03-06T08:31:21.231Z,16.77
2023-03-06T08:33:48.170Z,15.88
2023-03-06T08:36:15.050Z,15.43
2023-03-06T08:38:42.197Z,15.52
2023-03-06T08:41:09.059Z,15.65
2023-03-06T08:43:36.303Z,16.23
2023-03-06T08:46:03.599Z,16.55
2023-03-06T08:48:30.613Z,16.70
2023-03-06T08:50:57.894Z,16.98
2023-03-06T08:53:40.334Z,16.90
2023-03-06T08:56:18.331Z,16.70
2023-03-06T08:58:46.060Z,16.38
2023-03-06T09:01:19.167Z,17.88
2023-03-06T09:03:46.462Z,16.92
2023-03-06T09:06:13.503Z,16.77
2023-03-06T09:08:43.214Z,17.08
2023-03-06T09:11:11.956Z,16.02
2023-03-06T09:13:39.311Z,16.33
2023-03-06T09:16:07.031Z,15.70
2023-03-06T09:18:33.854Z,15.63
2023-03-06T09:21:01.304Z,16.73
2023-03-06T09:23:29.371Z,16.23
2023-03-06T09:25:58.129Z,16.42
2023-03-06T09:28:25.488Z,15.55
2023-03-06T09:30:54.279Z,16.42
2023-03-06T09:33:21.798Z,16.05
2023-03-06T09:35:56.756Z,16.38
2023-03-06T09:38:27.166Z,15.48
2023-03-06T09:41:22.903Z,15.88
2023-03-06T09:43:53.379Z,15.23
2023-03-06T09:46:31.211Z,16.45
2023-03-06T09:49:34.002Z,16.83
2023-03-06T09:52:19.925Z,16.45
2023-03-06T09:54:54.549Z,17.67
2023-03-06T09:57:37.440Z,16.17
2023-03-06T10:00:13.173Z,15.88
2023-03-06T10:02:46.128Z,14.95
2023-03-06T10:05:26.997Z,16.17
2023-03-06T10:08:02.354Z,15.75
2023-03-06T10:10:48.426Z,15.77
2023-03-06T10:13:19.955Z,15.70
2023-03-06T10:15:48.158Z,15.75
2023-03-06T10:18:15.207Z,15.40
2023-03-06T10:21:17.273Z,15.00
2023-03-06T10:23:46.736Z,15.68
2023-03-06T10:26:19.588Z,14.38
2023-03-06T10:29:18.969Z,14.00
2023-03-06T10:31:56.595Z,14.23
2023-03-06T10:34:29.077Z,14.15
2023-03-06T10:37:01.545Z,14.38
2023-03-06T10:39:29.939Z,14.32
2023-03-06T10:41:56.905Z,15.38
2023-03-06T10:44:25.025Z,14.32
2023-03-06T10:46:53.977Z,14.65
2023-03-06T10:49:36.617Z,13.68
2023-03-06T10:52:06.681Z,14.73
2023-03-06T10:54:37.667Z,14.60
2023-03-06T10:57:20.702Z,14.30
2023-03-06T10:59:53.613Z,13.32
2023-03-06T11:02:27.627Z,14.57
2023-03-06T11:04:56.441Z,13.63
2023-03-06T11:07:28.787Z,13.50
2023-03-06T11:10:00.447Z,12.57
2023-03-06T11:12:33.398Z,13.00
2023-03-06T11:15:15.092Z,13.73
2023-03-06T11:17:55.563Z,18.75
2023-03-06T11:20:51.508Z,12.95
2023-03-06T11:23:29.333Z,12.68
2023-03-06T11:26:15.214Z,12.05
2023-03-06T11:28:48.549Z,12.93
2023-03-06T11:31:20.878Z,12.32
2023-03-06T11:34:06.410Z,11.55
2023-03-06T11:36:36.333Z,12.07
2023-03-06T11:39:26.464Z,11.65
2023-03-06T11:42:20.513Z,12.20
2023-03-06T11:45:07.225Z,10.75
2023-03-06T11:47:39.248Z,11.05
2023-03-06T11:50:18.888Z,10.98
2023-03-06T11:52:54.300Z,11.80
2023-03-06T11:55:50.381Z,10.88
2023-03-06T11:58:36.058Z,11.82
2023-03-06T12:01:32.393Z,11.30
2023-03-06T12:04:11.635Z,11.85
2023-03-06T12:07:12.459Z,11.75
2023-03-06T12:09:49.676Z,10.68
2023-03-06T12:12:54.247Z,10.13
2023-03-06T12:15:58.581Z,10.27
2023-03-06T12:19:04.188Z,10.57
2023-03-06T12:21:45.728Z,9.85
2023-03-06T12:24:27.672Z,10.15
2023-03-06T12:27:12.978Z,9.05
2023-03-06T12:29:46.354Z,10.57
2023-03-06T12:32:27.787Z,9.13
2023-03-06T12:35:05.958Z,8.80
2023-03-06T12:37:54.965Z,7.53
2023-03-06T12:40:39.616Z,5.75
2023-03-06T12:43:25.169Z,5.20
2023-03-06T12:46:01.320Z,4.45
2023-03-06T12:48:34.959Z,5.40
2023-03-06T12:51:03.981Z,5.85
2023-03-06T12:53:33.044Z,5.22
2023-03-06T12:58:28.701Z,5.07
2023-03-06T13:01:06.149Z,5.25
2023-03-06T13:03:52.174Z,5.30
2023-03-06T13:06:51.209Z,6.20
2023-03-06T13:12:16.335Z,5.65
2023-03-06T13:14:53.840Z,4.90
2023-03-06T13:17:21.424Z,5.60
2023-03-06T13:19:49.218Z,5.25
2023-03-06T13:22:30.001Z,4.15
2023-03-06T13:25:18.953Z,4.80
2023-03-06T13:28:00.326Z,5.82
2023-03-06T13:30:39.483Z,3.97
2023-03-06T13:33:27.521Z,4.78
2023-03-06T13:36:14.134Z,4.63
2023-03-06T13:38:40.873Z,4.38
2023-03-06T13:41:23.084Z,5.53
2023-03-06T13:43:52.692Z,4.45
2023-03-06T13:46:37.811Z,4.47
2023-03-06T13:49:07.793Z,4.35
2023-03-06T13:51:52.079Z,3.90
2023-03-06T13:54:41.029Z,4.28
2023-03-06T13:57:39.889Z,3.90
2023-03-06T14:00:34.267Z,4.03
2023-03-06T14:03:01.147Z,3.53
2023-03-06T14:05:46.059Z,10.25
2023-03-06T14:08:13.169Z,3.67
2023-03-06T14:10:40.711Z,3.40
2023-03-06T14:13:20.109Z,3.85
2023-03-06T14:15:52.826Z,3.47
2023-03-06T14:18:28.001Z,3.05
2023-03-06T14:21:01.073Z,3.47
2023-03-06T14:23:35.337Z,3.30
2023-03-06T14:26:08.952Z,3.45
2023-03-06T14:28:37.449Z,3.13
2023-03-06T14:31:06.241Z,3.15
2023-03-06T14:33:39.111Z,3.88
2023-03-06T14:36:10.386Z,4.20
2023-03-06T14:38:44.198Z,3.83
2023-03-06T14:41:13.048Z,3.85
2023-03-06T14:43:41.072Z,4.50
2023-03-06T14:46:20.086Z,3.72
2023-03-06T14:48:47.960Z,4.20
2023-03-06T14:51:21.182Z,5.03
2023-03-06T14:53:50.344Z,4.35
2023-03-06T14:56:23.437Z,5.15
2023-03-06T14:58:50.629Z,5.25
2023-03-06T15:01:26.084Z,5.10
2023-03-06T15:03:57.506Z,4.72
2023-03-06T15:06:29.805Z,4.10
2023-03-06T15:09:16.645Z,4.35
2023-03-06T15:12:03.990Z,4.38
2023-03-06T15:14:42.425Z,3.35
2023-03-06T15:17:18.469Z,3.63
2023-03-06T15:19:48.585Z,3.67
2023-03-06T15:22:27.753Z,3.60
2023-03-06T15:25:14.347Z,4.47
2023-03-06T15:27:47.213Z,3.90
2023-03-06T15:30:26.471Z,4.25
2023-03-06T15:33:22.242Z,3.95
2023-03-06T15:36:01.902Z,4.85
2023-03-06T15:38:32.406Z,5.43
2023-03-06T15:41:01.824Z,4.63
2023-03-06T15:43:34.745Z,4.82
2023-03-06T15:46:02.155Z,5.50
2023-03-06T15:48:29.170Z,5.55
2023-03-06T15:50:56.436Z,5.57
2023-03-06T15:53:23.757Z,6.22
2023-03-06T15:55:52.220Z,4.93
2023-03-06T15:58:23.507Z,4.25
2023-03-06T16:00:51.261Z,4.72
2023-03-06T16:03:18.837Z,5.05
2023-03-06T16:05:45.843Z,4.57
2023-03-06T16:08:14.931Z,5.57
2023-03-06T16:10:44.704Z,5.20
2023-03-06T16:13:16.430Z,4.72
2023-03-06T16:15:49.384Z,4.95
2023-03-06T16:18:16.831Z,5.35
2023-03-06T16:20:43.987Z,5.32
2023-03-06T16:23:11.052Z,5.25
2023-03-06T16:25:45.860Z,5.47
2023-03-06T16:28:16.463Z,5.40
2023-03-06T16:30:44.675Z,5.57
2023-03-06T16:33:12.964Z,6.00
2023-03-06T16:35:41.275Z,6.78
2023-03-06T16:38:10.567Z,6.60
2023-03-06T16:40:41.191Z,7.30
2023-03-06T16:43:09.706Z,8.52
2023-03-06T16:45:39.293Z,7.85
2023-03-06T16:48:07.461Z,7.10
2023-03-06T16:50:38.902Z,7.03
2023-03-06T16:53:06.442Z,7.05
2023-03-06T16:55:34.908Z,5.05
2023-03-06T16:58:03.223Z,6.00
2023-03-06T17:00:32.110Z,5.50
2023-03-06T17:03:00.800Z,7.07
2023-03-06T17:05:28.924Z,6.72
2023-03-06T17:07:56.571Z,7.05
2023-03-06T17:10:26.324Z,5.20
2023-03-06T17:12:55.225Z,6.60
2023-03-06T17:15:22.341Z,7.60
2023-03-06T17:17:51.646Z,6.65
2023-03-06T17:20:19.672Z,5.90
2023-03-06T17:22:46.693Z,6.47
2023-03-06T17:25:13.689Z,6.10
2023-03-06T17:27:41.041Z,6.40
2023-03-06T17:30:08.585Z,6.53
2023-03-06T17:32:37.586Z,6.40
2023-03-06T17:35:05.227Z,6.53
2023-03-06T17:37:32.419Z,5.93
2023-03-06T17:39:59.407Z,6.05
2023-03-06T17:42:26.406Z,5.35
2023-03-06T17:44:53.365Z,8.35
2023-03-06T17:47:20.410Z,7.75
2023-03-06T17:49:47.425Z,8.00
2023-03-06T17:52:14.409Z,6.75
2023-03-06T17:54:41.459Z,6.22
2023-03-06T17:57:08.532Z,6.70
2023-03-06T17:59:35.501Z,6.88
2023-03-06T18:02:02.760Z,6.53
2023-03-06T18:04:29.944Z,7.35
2023-03-06T18:06:58.301Z,13.23
2023-03-06T18:09:25.494Z,8.90
2023-03-06T18:11:52.438Z,8.00
2023-03-06T18:14:19.445Z,6.90
2023-03-06T18:16:46.765Z,6.97
2023-03-06T18:19:14.357Z,7.43
2023-03-06T18:21:41.468Z,21.02
2023-03-06T18:24:09.405Z,11.35
2023-03-06T18:26:36.512Z,8.07
2023-03-06T18:29:04.754Z,31.35
2023-03-06T18:31:37.295Z,27.65
2023-03-06T18:34:07.409Z,10.30
2023-03-06T18:36:35.737Z,10.27
2023-03-06T18:39:05.310Z,9.20
2023-03-06T18:41:32.926Z,8.90
2023-03-06T18:44:01.489Z,9.70
2023-03-06T18:46:34.756Z,9.98
2023-03-06T18:49:02.256Z,9.07
2023-03-06T18:51:29.318Z,9.88
2023-03-06T18:53:58.196Z,10.60
2023-03-06T18:56:25.398Z,30.98
2023-03-06T18:58:53.548Z,10.00
2023-03-06T19:01:22.553Z,11.50
2023-03-06T19:03:49.885Z,8.48
2023-03-06T19:06:17.646Z,8.80
2023-03-06T19:08:45.244Z,10.50
2023-03-06T19:11:14.726Z,7.20
2023-03-06T19:13:41.943Z,7.15
2023-03-06T19:16:16.026Z,8.13
2023-03-06T19:18:43.117Z,7.13
2023-03-06T19:21:15.038Z,6.57
2023-03-06T19:23:42.706Z,6.50
2023-03-06T19:26:11.521Z,6.18
2023-03-06T19:28:40.824Z,5.80
2023-03-06T19:31:14.401Z,5.72
2023-03-06T19:33:42.704Z,4.70
2023-03-06T19:36:12.010Z,6.15
2023-03-06T19:41:06.322Z,6.07
2023-03-06T19:43:33.225Z,5.13
2023-03-06T19:46:00.895Z,6.63
2023-03-06T19:48:27.844Z,5.30
2023-03-06T19:50:54.987Z,5.88
2023-03-06T19:53:23.064Z,6.55
2023-03-06T19:55:50.142Z,6.20
2023-03-06T19:58:17.436Z,5.53
2023-03-06T20:00:44.377Z,9.75
2023-03-06T20:03:11.480Z,9.90
2023-03-06T20:05:46.080Z,9.27
2023-03-06T20:08:13.469Z,11.13
2023-03-06T20:10:40.306Z,11.23
2023-03-06T20:13:07.467Z,11.85
2023-03-06T20:15:35.170Z,10.77
2023-03-06T20:18:02.287Z,11.02
2023-03-06T20:20:29.128Z,11.15
2023-03-06T20:22:56.231Z,12.15
2023-03-06T20:25:23.132Z,12.55
2023-03-06T20:27:50.497Z,12.38
2023-03-06T20:30:17.813Z,13.32
2023-03-06T20:32:44.747Z,11.52
2023-03-06T20:35:11.877Z,14.80
2023-03-06T20:37:40.773Z,12.85
2023-03-06T20:40:08.619Z,12.43
2023-03-06T20:42:35.874Z,14.85
2023-03-06T20:45:02.957Z,40.90
2023-03-06T20:47:31.092Z,24.52
2023-03-06T20:49:57.923Z,15.60
2023-03-06T20:52:24.978Z,13.90
2023-03-06T20:54:51.811Z,14.02
2023-03-06T20:57:18.692Z,14.55
2023-03-06T20:59:45.650Z,17.17
2023-03-06T21:02:15.137Z,15.23
2023-03-06T21:04:42.366Z,14.95
2023-03-06T21:07:09.333Z,14.13
2023-03-06T21:09:37.914Z,19.70
2023-03-06T21:12:05.401Z,20.43
2023-03-06T21:14:32.401Z,20.02
2023-03-06T21:17:01.271Z,17.58
2023-03-06T21:19:28.157Z,38.70
2023-03-06T21:21:55.125Z,20.60
2023-03-06T21:24:22.498Z,19.52
2023-03-06T21:26:51.188Z,19.65
2023-03-06T21:29:18.399Z,23.63
2023-03-06T21:31:45.469Z,22.65
2023-03-06T21:34:12.608Z,17.75
2023-03-06T21:36:39.635Z,20.13
2023-03-06T21:39:06.791Z,22.30
2023-03-06T21:41:34.057Z,20.58
2023-03-06T21:44:03.455Z,19.88
2023-03-06T21:46:31.208Z,18.67
2023-03-06T21:48:58.840Z,20.17
2023-03-06T21:51:26.439Z,16.92
2023-03-06T21:53:54.330Z,16.02
2023-03-06T21:56:25.000Z,16.80
2023-03-06T21:58:52.299Z,15.68
2023-03-06T22:01:25.952Z,15.32
2023-03-06T22:03:53.521Z,14.60
2023-03-06T22:06:25.507Z,14.98
2023-03-06T22:08:58.580Z,13.85
2023-03-06T22:11:27.509Z,15.48
2023-03-06T22:13:54.546Z,15.60
2023-03-06T22:16:21.811Z,13.82
2023-03-06T22:18:52.155Z,14.38
2023-03-06T22:21:22.300Z,15.40
2023-03-06T22:23:51.586Z,16.45
2023-03-06T22:26:19.063Z,15.60
2023-03-06T22:28:46.280Z,18.83
2023-03-06T22:31:15.026Z,22.92
2023-03-06T22:33:42.103Z,22.27
2023-03-06T22:36:12.456Z,17.77
2023-03-06T22:38:41.543Z,19.67
2023-03-06T22:41:09.896Z,17.95
2023-03-06T22:43:37.386Z,16.55
2023-03-06T22:46:16.136Z,17.00
2023-03-06T22:48:43.995Z,15.95
2023-03-06T22:51:13.839Z,16.20
2023-03-06T22:53:41.295Z,14.85
2023-03-06T22:56:11.213Z,15.80
2023-03-06T22:58:38.602Z,15.07
2023-03-06T23:01:06.357Z,14.20
2023-03-06T23:03:33.322Z,12.25
2023-03-06T23:06:00.170Z,13.40
2023-03-06T23:08:27.023Z,14.98
2023-03-06T23:10:53.918Z,11.23
2023-03-06T23:13:39.162Z,11.52
2023-03-06T23:16:25.577Z,11.23
2023-03-06T23:19:11.673Z,10.65
2023-03-06T23:21:57.126Z,11.95
2023-03-06T23:24:42.871Z,11.30
2023-03-06T23:27:09.916Z,11.38
2023-03-06T23:29:36.964Z,10.68
2023-03-06T23:32:05.460Z,11.52
2023-03-06T23:34:32.510Z,12.40
2023-03-06T23:36:59.390Z,11.32
2023-03-06T23:39:26.685Z,11.02
2023-03-06T23:41:53.499Z,11.30
2023-03-06T23:44:20.728Z,10.63
2023-03-06T23:46:47.614Z,10.25
2023-03-06T23:49:14.627Z,11.50
2023-03-06T23:51:41.442Z,10.50
2023-03-06T23:54:09.970Z,11.70
2023-03-06T23:56:36.942Z,10.77
2023-03-06T23:59:04.201Z,11.18
